Time;durP1;ratioP1;P1;durP2;ratioP2;P2;SDS_P1;SDS_P2;PMS_P1;PMS_P2;Temp;Humidity;BMP_temperature;BMP_pressure;BME280_temperature;BME280_humidity;BME280_pressure;Samples;Min_cycle;Max_cycle;Signal;HPM_P1;HPM_P2
2021/04/01 00:02:59;;;;;;;18.77;9.63;;;;;;;13.85;39.06;97969.69;10122526;29;20055;-76
2021/04/01 00:08:19;;;;;;;15.00;8.88;;;;;;;13.82;39.11;97953.34;10135340;29;20053;-76
2021/04/01 00:13:38;;;;;;;14.25;7.20;;;;;;;13.85;39.23;97954.94;10122089;29;20060;-77
2021/04/01 00:18:59;;;;;;;17.38;7.78;;;;;;;13.93;39.42;97958.22;10135477;29;20393;-77
2021/04/01 00:24:18;;;;;;;12.75;8.07;;;;;;;13.85;40.28;97950.03;10135470;29;20079;-75
2021/04/01 00:29:38;;;;;;;18.10;8.95;;;;;;;13.62;39.94;97950.84;10135072;29;20052;-75
2021/04/01 00:34:58;;;;;;;21.65;11.90;;;;;;;13.45;41.14;97946.31;10135261;29;20040;-75
2021/04/01 00:40:23;;;;;;;20.50;11.32;;;;;;;13.33;40.68;97940.00;10143183;29;20041;-77
2021/04/01 00:45:43;;;;;;;19.60;10.88;;;;;;;13.29;40.90;97939.75;10115976;29;20444;-75
2021/04/01 00:51:03;;;;;;;20.52;10.10;;;;;;;13.29;41.28;97922.94;10142663;29;20052;-75
2021/04/01 00:56:23;;;;;;;19.63;10.82;;;;;;;13.31;41.47;97917.44;10129286;29;20056;-76
2021/04/01 01:02:04;;;;;;;15.57;10.15;;;;;;;13.35;41.58;97914.88;10116068;29;20048;-76
2021/04/01 01:07:23;;;;;;;15.52;8.55;;;;;;;13.37;41.82;97914.28;10118379;29;20441;-76
2021/04/01 01:12:43;;;;;;;15.90;8.27;;;;;;;13.37;41.70;97905.88;10128765;29;20048;-76
2021/04/01 01:18:03;;;;;;;12.32;7.25;;;;;;;13.38;41.83;97905.25;10141663;29;20056;-76
2021/04/01 01:23:23;;;;;;;20.20;7.50;;;;;;;13.49;41.84;97905.84;10102254;29;20055;-76
2021/04/01 01:28:43;;;;;;;17.08;8.82;;;;;;;13.36;41.89;97910.75;10128034;29;20493;-76
2021/04/01 01:34:03;;;;;;;17.15;9.82;;;;;;;13.09;41.93;97899.28;10127869;29;20060;-75
2021/04/01 01:39:22;;;;;;;16.20;9.18;;;;;;;12.87;42.55;97899.38;10127826;29;20065;-76
2021/04/01 01:44:42;;;;;;;17.23;9.07;;;;;;;12.70;42.76;97896.94;10140636;29;20420;-76
2021/04/01 01:50:05;;;;;;;20.35;10.18;;;;;;;12.53;43.17;97897.25;10126681;29;20404;-76
2021/04/01 01:55:27;;;;;;;16.92;9.75;;;;;;;12.43;43.33;97888.97;10127433;29;20044;-76
2021/04/01 02:00:50;;;;;;;16.98;9.13;;;;;;;12.44;43.58;97884.81;10140266;29;20059;-76
2021/04/01 02:06:12;;;;;;;15.02;8.02;;;;;;;12.42;44.18;97884.69;10139617;29;20048;-76
2021/04/01 02:11:31;;;;;;;19.30;8.27;;;;;;;12.40;44.16;97875.44;10139579;29;20093;-75
2021/04/01 02:16:51;;;;;;;12.98;6.10;;;;;;;12.46;44.30;97864.63;10152928;29;20052;-75
2021/04/01 02:22:11;;;;;;;12.43;6.05;;;;;;;12.57;44.23;97875.13;10126406;29;20044;-76
2021/04/01 02:27:32;;;;;;;18.60;6.45;;;;;;;12.60;44.26;97862.69;10126370;29;20378;-75
2021/04/01 02:32:51;;;;;;;10.57;6.38;;;;;;;12.67;44.08;97864.53;10138969;29;20067;-76
2021/04/01 02:38:11;;;;;;;12.00;5.80;;;;;;;12.66;44.10;97863.09;10152327;29;20104;-76
2021/04/01 02:43:33;;;;;;;10.35;6.25;;;;;;;12.63;44.30;97846.75;10138702;29;20449;-75
2021/04/01 02:48:53;;;;;;;12.35;5.80;;;;;;;12.70;44.07;97846.50;10125075;29;20068;-76
2021/04/01 02:54:13;;;;;;;10.38;5.97;;;;;;;12.66;44.14;97846.28;10138209;29;20048;-75
2021/04/01 02:59:33;;;;;;;11.40;5.35;;;;;;;12.59;44.14;97836.03;10138034;29;20060;-75
2021/04/01 03:04:53;;;;;;;10.00;5.45;;;;;;;12.53;44.40;97836.38;10124683;29;20049;-75
2021/04/01 03:10:13;;;;;;;11.27;5.50;;;;;;;12.46;44.60;97826.19;10137403;29;20044;-75
2021/04/01 03:15:32;;;;;;;9.75;4.78;;;;;;;12.43;44.38;97832.25;10123883;29;20059;-76
2021/04/01 03:20:52;;;;;;;7.35;4.57;;;;;;;12.37;44.66;97829.81;10136481;29;20048;-76
2021/04/01 03:26:12;;;;;;;8.85;4.78;;;;;;;12.32;44.59;97826.03;10136974;29;20087;-76
2021/04/01 03:31:31;;;;;;;13.07;5.25;;;;;;;12.28;44.54;97820.19;10123379;29;20044;-75
2021/04/01 03:36:51;;;;;;;9.27;5.03;;;;;;;12.23;44.66;97826.84;10121062;29;20056;-74
2021/04/01 03:42:11;;;;;;;9.35;4.43;;;;;;;12.15;44.95;97820.00;10123677;29;20582;-75
2021/04/01 03:47:31;;;;;;;11.50;4.82;;;;;;;12.07;44.99;97828.66;10121108;29;20045;-75
2021/04/01 03:52:50;;;;;;;10.15;4.70;;;;;;;12.02;44.96;97821.31;10109884;29;20048;-76
2021/04/01 04:09:52;;;;;;;10.82;5.40;;;;;;;11.98;45.24;97815.50;10097333;29;20049;-76
2021/04/01 04:15:16;;;;;;;9.93;4.55;;;;;;;11.89;45.32;97805.13;10109068;29;20100;-76
2021/04/01 04:20:37;;;;;;;14.07;4.95;;;;;;;11.88;45.40;97803.66;10116281;29;20409;-76
2021/04/01 04:25:58;;;;;;;14.20;5.18;;;;;;;11.86;45.39;97812.63;10118207;29;20040;-75
2021/04/01 04:31:18;;;;;;;10.63;5.32;;;;;;;11.87;45.24;97808.53;10111853;29;20040;-75
2021/04/01 04:36:38;;;;;;;11.82;5.53;;;;;;;11.93;45.38;97805.38;10093948;29;20081;-76
2021/04/01 04:41:57;;;;;;;10.98;5.50;;;;;;;11.99;45.24;97805.75;10084664;29;20056;-74
2021/04/01 04:47:17;;;;;;;11.38;5.88;;;;;;;12.07;45.39;97803.47;10094765;29;20040;-75
2021/04/01 04:52:38;;;;;;;11.23;4.97;;;;;;;12.18;45.39;97811.16;10094388;29;20036;-76
2021/04/01 04:58:22;;;;;;;12.77;5.13;;;;;;;12.28;45.18;97816.66;10127862;29;20049;-76
2021/04/01 05:09:20;;;;;;;14.95;6.07;;;;;;;12.66;45.13;97815.47;10127961;29;20507;-75
2021/04/01 05:14:40;;;;;;;12.85;6.25;;;;;;;12.93;44.91;97803.03;10113867;29;20092;-76
2021/04/01 05:20:05;;;;;;;12.48;6.50;;;;;;;13.35;44.60;97802.03;10113096;29;20100;-75
2021/04/01 05:25:27;;;;;;;12.68;5.57;;;;;;;13.93;44.12;97793.38;10133549;29;20041;-76
2021/04/01 05:30:47;;;;;;;12.65;6.13;;;;;;;14.51;43.32;97800.00;10115344;29;20055;-75
2021/04/01 05:36:13;;;;;;;13.38;5.80;;;;;;;15.42;42.88;97809.56;10128475;29;20072;-75
2021/04/01 05:41:32;;;;;;;9.85;6.03;;;;;;;16.41;41.43;97807.25;10140341;29;20045;-76
2021/04/01 05:47:08;;;;;;;14.68;7.05;;;;;;;18.04;39.72;97809.25;10127313;29;20532;-74
2021/04/01 06:04:01;;;;;;;8.75;5.68;;;;;;;34.05;22.89;97810.94;10119053;29;20049;-76
2021/04/01 06:09:24;;;;;;;11.23;4.97;;;;;;;36.96;18.27;97811.44;10126332;29;20048;-78
2021/04/01 06:14:56;;;;;;;9.90;4.63;;;;;;;40.49;13.53;97817.06;10113570;29;20088;-76
2021/04/01 06:20:16;;;;;;;10.35;5.10;;;;;;;43.65;10.05;97813.44;10138935;29;20040;-76
2021/04/01 06:25:39;;;;;;;6.18;4.25;;;;;;;46.20;7.62;97805.13;10139972;29;20392;-78
2021/04/01 06:30:59;;;;;;;9.02;4.20;;;;;;;48.21;6.21;97796.50;10112567;29;20068;-77
2021/04/01 06:36:22;;;;;;;9.48;5.00;;;;;;;49.31;4.74;97799.50;10085268;29;20385;-77
2021/04/01 06:41:42;;;;;;;9.88;4.72;;;;;;;50.16;3.98;97799.25;10112482;29;20086;-77
2021/04/01 06:47:11;;;;;;;8.52;4.35;;;;;;;50.42;3.79;97790.88;10090251;29;20053;-77
2021/04/01 06:52:38;;;;;;;7.93;4.50;;;;;;;49.95;3.11;97785.59;10074685;29;20048;-75
2021/04/01 07:04:05;;;;;;;5.45;4.18;;;;;;;50.29;3.18;97788.34;10059817;29;20166;-78
2021/04/01 07:09:48;;;;;;;5.88;4.53;;;;;;;52.39;2.80;97764.09;10085519;29;20053;-77
2021/04/01 07:15:18;;;;;;;9.07;4.43;;;;;;;53.76;2.26;97762.97;10062630;29;20433;-75
2021/04/01 07:48:56;;;;;;;;;;;;;;;54.70;1.31;97743.66;10091568;29;20052;-77
2021/04/01 07:54:17;;;;;;;8.88;5.13;;;;;;;55.61;1.22;97738.38;10095400;29;19924;-75
2021/04/01 07:59:51;;;;;;;9.75;4.80;;;;;;;58.23;0.05;97735.38;10067987;29;20449;-77
2021/04/01 08:05:32;;;;;;;9.47;4.73;;;;;;;60.63;0.19;97730.25;10099310;29;20055;-76
2021/04/01 08:10:53;;;;;;;6.20;4.18;;;;;;;58.97;0.00;97736.22;10097399;29;20417;-78
2021/04/01 08:16:12;;;;;;;7.45;4.28;;;;;;;58.29;0.37;97719.56;10108708;29;20067;-76
2021/04/01 08:21:36;;;;;;;12.80;4.43;;;;;;;61.09;0.00;97731.34;10081041;29;20044;-78
2021/04/01 08:27:15;;;;;;;8.55;4.20;;;;;;;60.65;0.00;97729.94;10081532;29;20492;-78
2021/04/01 08:38:25;;;;;;;6.75;4.20;;;;;;;61.85;0.00;97720.53;10102860;29;20040;-77
2021/04/01 08:44:15;;;;;;;7.40;4.32;;;;;;;60.39;0.00;97706.50;10108379;29;20052;-78
2021/04/01 08:49:37;;;;;;;7.65;3.90;;;;;;;57.19;0.29;97694.53;10118998;29;20045;-79
2021/04/01 08:55:17;;;;;;;8.25;4.40;;;;;;;55.19;0.81;97687.22;10119013;29;20064;-77
2021/04/01 09:00:37;;;;;;;11.93;5.05;;;;;;;53.28;1.42;97677.22;10100665;29;20045;-78
2021/04/01 09:05:58;;;;;;;10.15;4.50;;;;;;;54.04;1.38;97676.25;10103264;29;20120;-77
2021/04/01 09:11:18;;;;;;;7.80;4.30;;;;;;;55.52;0.70;97660.19;10102251;29;20045;-77
2021/04/01 09:16:40;;;;;;;6.20;3.97;;;;;;;55.62;0.81;97662.66;10089189;29;20049;-79
2021/04/01 09:21:59;;;;;;;10.10;4.88;;;;;;;50.42;2.26;97659.56;10090173;29;20134;-80
2021/04/01 09:27:19;;;;;;;7.97;4.70;;;;;;;51.65;2.39;97654.84;10101960;29;20102;-78
2021/04/01 09:32:39;;;;;;;5.75;4.07;;;;;;;54.12;1.46;97656.09;10088774;29;20044;-79
2021/04/01 09:38:04;;;;;;;7.05;4.25;;;;;;;54.72;0.93;97650.78;10114418;29;20127;-78
2021/04/01 09:43:25;;;;;;;8.13;4.32;;;;;;;54.60;0.82;97646.88;10140519;29;20048;-80
2021/04/01 09:49:02;;;;;;;7.43;4.10;;;;;;;54.53;1.23;97640.91;10088826;29;20048;-80
2021/04/01 09:54:23;;;;;;;9.93;4.50;;;;;;;54.50;0.62;97639.78;10087958;29;20040;-83
2021/04/01 09:59:48;;;;;;;6.20;4.40;;;;;;;54.53;1.04;97622.31;10087855;29;20056;-78
2021/04/01 10:05:08;;;;;;;8.65;4.57;;;;;;;52.74;0.79;97618.91;10089057;29;20053;-81
2021/04/01 10:10:37;;;;;;;10.90;5.40;;;;;;;47.53;2.65;97626.97;10099570;29;20071;-76
2021/04/01 10:15:58;;;;;;;8.35;5.20;;;;;;;44.90;4.18;97614.41;10087564;29;20060;-78
2021/04/01 10:21:18;;;;;;;9.48;5.07;;;;;;;44.50;4.29;97619.44;10086904;29;20045;-81
2021/04/01 10:26:42;;;;;;;15.18;6.10;;;;;;;42.91;4.61;97622.94;10099740;29;20052;-80
2021/04/01 10:32:05;;;;;;;8.38;5.05;;;;;;;42.94;5.20;97615.41;10089090;29;20041;-77
2021/04/01 10:37:26;;;;;;;13.20;6.65;;;;;;;40.47;6.22;97609.56;10086316;29;20055;-77
2021/04/01 10:43:00;;;;;;;10.98;5.60;;;;;;;38.96;7.20;97601.25;10124725;29;20066;-76
2021/04/01 10:48:31;;;;;;;11.70;5.97;;;;;;;37.32;7.98;97604.25;10101690;29;20446;-79
2021/04/01 10:53:51;;;;;;;15.25;8.05;;;;;;;35.87;8.76;97601.06;10112950;29;20044;-78
2021/04/01 10:59:10;;;;;;;10.93;7.57;;;;;;;35.12;9.62;97592.00;10098069;29;20049;-74
2021/04/01 11:04:30;;;;;;;13.83;8.70;;;;;;;34.60;9.98;97595.09;10085115;29;20056;-78
2021/04/01 11:09:51;;;;;;;11.57;8.63;;;;;;;34.71;10.65;97596.19;10084940;29;20285;-74
2021/04/01 11:15:11;;;;;;;16.65;8.85;;;;;;;35.93;10.01;97592.16;10084918;29;20115;-75
2021/04/01 11:20:36;;;;;;;17.47;9.53;;;;;;;35.90;9.89;97587.88;10096444;29;20064;-75
2021/04/01 11:25:58;;;;;;;17.58;10.07;;;;;;;35.84;9.97;97585.19;10070486;29;20068;-74
2021/04/01 11:31:28;;;;;;;15.90;10.15;;;;;;;35.39;10.38;97580.94;10123241;29;20048;-79
2021/04/01 11:36:52;;;;;;;16.63;9.82;;;;;;;35.67;10.00;97584.34;10094915;29;20048;-77
2021/04/01 11:42:14;;;;;;;17.00;10.07;;;;;;;36.16;9.96;97582.59;10095668;29;20096;-75
2021/04/01 11:47:39;;;;;;;15.07;9.77;;;;;;;35.74;9.77;97577.56;10106783;29;20048;-77
2021/04/01 11:53:03;;;;;;;13.48;9.45;;;;;;;35.27;9.82;97570.44;10094518;29;20406;-77
2021/04/01 11:58:23;;;;;;;22.85;12.70;;;;;;;34.43;10.92;97580.38;10135280;29;20100;-76
2021/04/01 12:09:12;;;;;;;20.70;11.90;;;;;;;32.88;11.68;97583.78;10100516;29;20045;-78
2021/04/01 12:14:36;;;;;;;25.60;13.43;;;;;;;32.61;12.73;97580.78;10111117;29;20502;-77
2021/04/01 12:19:58;;;;;;;20.60;13.48;;;;;;;31.53;13.51;97575.00;10110887;29;20051;-79
2021/04/01 12:25:18;;;;;;;18.67;13.48;;;;;;;30.43;14.31;97582.50;10108317;29;20045;-77
2021/04/01 12:30:39;;;;;;;20.08;12.43;;;;;;;29.54;14.67;97569.91;10145994;29;20053;-76
2021/04/01 12:36:01;;;;;;;17.50;11.45;;;;;;;29.53;14.79;97574.22;10118380;29;20040;-75
2021/04/01 12:41:29;;;;;;;18.30;10.57;;;;;;;29.80;14.65;97582.56;10125531;29;20056;-75
2021/04/01 12:46:49;;;;;;;22.48;12.60;;;;;;;29.59;14.28;97573.44;10104798;29;20048;-79
2021/04/01 12:52:10;;;;;;;19.77;12.48;;;;;;;28.84;14.48;97576.94;10094054;29;20489;-75
2021/04/01 12:57:31;;;;;;;21.08;12.18;;;;;;;28.12;15.27;97574.50;10106066;29;20051;-79
2021/04/01 13:02:51;;;;;;;20.20;12.73;;;;;;;28.22;14.98;97570.84;10103966;29;20049;-76
2021/04/01 13:13:40;;;;;;;26.10;14.25;;;;;;;28.05;15.54;97558.72;10105590;29;20048;-78
2021/04/01 13:19:00;;;;;;;21.73;13.77;;;;;;;27.32;15.85;97551.06;10104786;29;20036;-77
2021/04/01 13:24:30;;;;;;;21.63;13.65;;;;;;;26.52;16.54;97553.19;10102320;29;20049;-78
2021/04/01 13:29:57;;;;;;;20.88;13.48;;;;;;;26.39;17.39;97560.34;10106962;29;20488;-78
2021/04/01 13:35:25;;;;;;;22.80;14.98;;;;;;;26.67;17.38;97548.22;10111161;29;20049;-78
2021/04/01 13:40:47;;;;;;;24.60;14.75;;;;;;;26.53;17.39;97554.63;10110762;29;20480;-78
2021/04/01 13:46:07;;;;;;;21.15;14.35;;;;;;;26.48;17.79;97546.75;10107564;29;20052;-76
2021/04/01 13:51:29;;;;;;;27.27;15.82;;;;;;;26.75;17.92;97547.50;10107441;29;20040;-78
2021/04/01 14:13:44;;;;;;;24.20;14.90;;;;;;;27.10;17.77;97543.22;10117626;29;20085;-81
2021/04/01 14:19:07;;;;;;;20.38;13.38;;;;;;;26.89;17.79;97547.50;10125497;29;20044;-80
2021/04/01 14:24:35;;;;;;;20.75;14.55;;;;;;;26.86;18.01;97546.06;10113099;29;20045;-78
2021/04/01 14:29:58;;;;;;;22.02;16.23;;;;;;;26.23;17.94;97549.53;10114066;29;20055;-77
2021/04/01 14:35:17;;;;;;;25.20;17.10;;;;;;;25.80;18.23;97547.97;10112518;29;20049;-80
2021/04/01 14:46:04;;;;;;;28.85;19.40;;;;;;;24.91;19.10;97533.81;10123974;29;20120;-82
2021/04/01 14:51:24;;;;;;;29.20;18.90;;;;;;;24.73;19.25;97537.97;10109794;29;20057;-83
2021/04/01 14:56:54;;;;;;;32.30;18.98;;;;;;;24.53;19.89;97537.78;10111114;29;20046;-84
2021/04/01 15:02:14;;;;;;;29.52;19.60;;;;;;;24.33;19.74;97537.59;10112953;29;20048;-82
2021/04/01 15:07:34;;;;;;;29.65;18.33;;;;;;;24.17;20.17;97521.72;10110989;29;20049;-81
2021/04/01 15:12:55;;;;;;;26.98;18.90;;;;;;;24.42;20.67;97516.28;10110793;29;20477;-83
2021/04/01 15:18:15;;;;;;;27.50;16.98;;;;;;;24.51;20.62;97503.50;10110876;29;20048;-82
2021/04/01 15:23:35;;;;;;;24.25;16.35;;;;;;;24.45;20.37;97497.75;10110315;29;20170;-82
2021/04/01 15:28:54;;;;;;;22.83;15.82;;;;;;;24.27;20.27;97496.16;10110260;29;20059;-82
2021/04/01 15:34:14;;;;;;;22.58;13.52;;;;;;;24.14;20.84;97500.31;10109878;29;20048;-83
2021/04/01 15:39:34;;;;;;;23.55;13.63;;;;;;;24.05;21.26;97492.38;10109996;29;20049;-82
2021/04/01 15:44:54;;;;;;;20.35;11.25;;;;;;;23.89;20.85;97498.59;10109740;29;20070;-85
2021/04/01 15:50:14;;;;;;;18.77;9.57;;;;;;;23.64;21.18;97494.75;10096740;29;20076;-79
2021/04/01 15:55:34;;;;;;;18.95;9.40;;;;;;;23.43;21.15;97491.63;10109196;29;20049;-87
2021/04/01 16:00:55;;;;;;;17.33;9.32;;;;;;;23.14;21.52;97481.25;10096080;29;20119;-80
2021/04/01 16:06:14;;;;;;;15.23;8.35;;;;;;;22.79;21.84;97472.22;10095558;29;20441;-82
2021/04/01 16:11:34;;;;;;;17.00;7.72;;;;;;;22.53;22.05;97468.94;10095803;29;20413;-75
2021/04/01 16:16:57;;;;;;;17.58;8.68;;;;;;;22.33;22.32;97457.97;10108755;29;20045;-83
2021/04/01 16:22:19;;;;;;;19.48;10.23;;;;;;;22.07;22.95;97466.03;10083145;29;20396;-78
2021/04/01 16:27:39;;;;;;;18.00;10.83;;;;;;;21.86;22.61;97462.78;10109031;29;20048;-80
2021/04/01 16:33:08;;;;;;;20.85;10.13;;;;;;;21.65;22.99;97466.66;10121346;29;20048;-77
2021/04/01 16:38:27;;;;;;;14.75;8.52;;;;;;;21.38;23.31;97460.44;10096559;29;20445;-80
2021/04/01 16:43:50;;;;;;;19.33;9.38;;;;;;;21.31;23.65;97458.13;10108340;29;20053;-76
2021/04/01 16:49:10;;;;;;;13.93;7.80;;;;;;;21.33;23.75;97450.41;10095014;29;20045;-76
2021/04/01 16:54:34;;;;;;;19.55;7.78;;;;;;;21.21;24.18;97472.81;10082260;29;20483;-77
2021/04/01 16:59:55;;;;;;;14.18;4.70;;;;;;;21.11;24.45;97481.09;10082748;29;20052;-81
2021/04/01 17:05:15;;;;;;;10.00;5.18;;;;;;;20.94;24.54;97494.22;10108016;29;20508;-83
2021/04/01 17:10:36;;;;;;;21.50;10.38;;;;;;;20.67;25.24;97490.06;10094871;29;20049;-81
2021/04/01 17:15:55;;;;;;;21.55;13.20;;;;;;;20.42;25.56;97505.72;10120610;29;20049;-84
2021/04/01 17:21:15;;;;;;;24.30;12.38;;;;;;;20.09;26.38;97518.31;10113620;29;20041;-89
2021/04/01 17:26:35;;;;;;;20.50;12.13;;;;;;;19.80;27.27;97510.44;10101763;29;20068;-81
2021/04/01 17:31:54;;;;;;;19.90;11.48;;;;;;;19.68;27.52;97517.19;10101559;29;20048;-84
2021/04/01 17:37:14;;;;;;;25.55;11.93;;;;;;;19.66;27.44;97517.16;10127285;29;20045;-86
2021/04/01 17:42:34;;;;;;;25.50;13.35;;;;;;;19.56;27.71;97502.69;10101366;29;20381;-86
2021/04/01 17:47:54;;;;;;;22.42;11.30;;;;;;;19.45;28.08;97512.28;10127441;29;20059;-86
2021/04/01 17:53:15;;;;;;;21.35;8.82;;;;;;;19.36;28.40;97516.97;10100875;29;20479;-85
2021/04/01 17:58:49;;;;;;;15.15;7.82;;;;;;;19.18;28.87;97516.41;10114005;29;20051;-80
2021/04/01 18:04:38;;;;;;;16.13;6.43;;;;;;;19.03;29.15;97509.63;10093092;29;20055;-79
2021/04/01 18:27:13;;;;;;;16.00;7.63;;;;;;;18.30;30.05;97538.31;10117422;29;20052;-78
2021/04/01 18:32:29;;;;;;;14.90;8.23;;;;;;;18.11;30.33;97541.91;10117386;29;20127;-79
2021/04/01 18:37:54;;;;;;;17.05;8.20;;;;;;;17.91;30.58;97545.47;10099559;29;20535;-79
2021/04/01 18:43:15;;;;;;;22.23;9.75;;;;;;;17.72;31.12;97558.19;10088667;29;20059;-80
2021/04/01 18:48:44;;;;;;;24.33;10.90;;;;;;;17.55;31.44;97569.50;10099316;29;20382;-78
2021/04/01 18:54:08;;;;;;;22.00;11.20;;;;;;;17.39;32.33;97570.34;10113993;29;20464;-79
2021/04/01 18:59:34;;;;;;;22.50;12.07;;;;;;;17.30;32.33;97588.34;10111890;29;20037;-79
2021/04/01 19:05:06;;;;;;;22.88;13.00;;;;;;;17.34;32.52;97596.22;10137304;29;20049;-79
2021/04/01 19:10:32;;;;;;;28.48;14.13;;;;;;;17.36;32.51;97608.31;10124106;29;20449;-79
2021/04/01 19:22:10;;;;;;;25.98;14.73;;;;;;;17.19;33.14;97622.44;10123863;29;20048;-78
2021/04/01 19:27:21;;;;;;;29.52;15.70;;;;;;;17.16;33.29;97627.97;10124929;29;20048;-79
2021/04/01 19:32:41;;;;;;;27.83;14.90;;;;;;;17.04;33.46;97635.22;10110207;29;20048;-79
2021/04/01 19:38:01;;;;;;;34.17;17.98;;;;;;;16.85;34.07;97631.66;10122929;29;20445;-78
2021/04/01 19:43:21;;;;;;;34.60;18.58;;;;;;;16.77;34.17;97639.78;10122406;29;20059;-80
2021/04/01 19:48:41;;;;;;;38.40;21.88;;;;;;;16.56;34.58;97637.47;10135941;29;20055;-79
2021/04/01 19:54:01;;;;;;;34.67;21.40;;;;;;;16.37;35.08;97632.41;10095744;29;20541;-79
2021/04/01 19:59:21;;;;;;;34.63;21.55;;;;;;;16.10;35.64;97639.69;10122572;29;20051;-79
2021/04/01 20:04:42;;;;;;;34.97;21.33;;;;;;;15.92;36.48;97634.00;10108719;29;20452;-78
2021/04/01 20:10:06;;;;;;;37.22;22.65;;;;;;;15.85;35.79;97640.00;10099279;29;20048;-79
2021/04/01 20:15:26;;;;;;;31.58;20.48;;;;;;;15.70;36.63;97647.78;10110719;29;20045;-78
2021/04/01 20:20:46;;;;;;;39.60;23.30;;;;;;;15.57;36.92;97654.19;10136371;29;20556;-80
2021/04/01 20:26:05;;;;;;;38.67;23.23;;;;;;;15.47;37.07;97662.16;10110959;29;20060;-78
2021/04/01 20:31:25;;;;;;;44.50;25.35;;;;;;;15.23;38.04;97670.16;10111677;29;20112;-78
2021/04/01 20:36:45;;;;;;;44.47;27.10;;;;;;;14.92;38.81;97682.00;10111612;29;20060;-78
2021/04/01 20:42:06;;;;;;;40.95;24.50;;;;;;;14.67;38.60;97698.97;10097935;29;20057;-78
2021/04/01 20:47:25;;;;;;;43.60;25.85;;;;;;;14.53;41.21;97691.28;10111501;29;20048;-78
2021/04/01 20:52:45;;;;;;;41.95;26.65;;;;;;;14.43;40.29;97690.75;10099031;29;20052;-78
2021/04/01 20:58:05;;;;;;;39.55;26.27;;;;;;;14.41;40.66;97695.53;10106250;29;20049;-78
2021/04/01 21:03:25;;;;;;;39.78;27.63;;;;;;;14.38;40.66;97702.38;10131803;29;20052;-78
2021/04/01 21:08:46;;;;;;;39.50;25.92;;;;;;;14.28;41.02;97706.16;10119249;29;20168;-78
2021/04/01 21:14:06;;;;;;;40.42;26.52;;;;;;;14.20;41.21;97708.53;10119314;29;20044;-78
2021/04/01 21:19:25;;;;;;;41.90;27.88;;;;;;;14.12;41.78;97715.78;10131037;29;20071;-78
2021/04/01 21:24:45;;;;;;;46.63;28.95;;;;;;;13.91;42.13;97725.94;10118396;29;20044;-78
2021/04/01 21:30:09;;;;;;;43.90;28.35;;;;;;;13.79;42.54;97733.66;10118014;29;20045;-78
2021/04/01 21:35:28;;;;;;;49.35;31.88;;;;;;;13.69;43.45;97733.09;10105812;29;20401;-78
2021/04/01 21:40:48;;;;;;;48.45;31.17;;;;;;;13.53;45.24;97723.81;10130009;29;20508;-78
2021/04/01 21:46:08;;;;;;;45.95;31.50;;;;;;;13.41;44.33;97743.47;10114998;29;20063;-78
2021/04/01 21:51:28;;;;;;;47.90;32.13;;;;;;;13.30;44.67;97747.78;10114569;29;20057;-78
2021/04/01 21:56:48;;;;;;;53.10;33.10;;;;;;;13.17;45.96;97748.41;10127191;29;20045;-77
2021/04/01 22:02:07;;;;;;;57.35;31.40;;;;;;;13.01;47.34;97769.88;10114378;29;20115;-78
2021/04/01 22:07:27;;;;;;;45.05;30.65;;;;;;;12.88;47.20;97786.00;10113488;29;20441;-78
2021/04/01 22:12:47;;;;;;;41.85;26.67;;;;;;;12.81;47.26;97794.63;10101212;29;20108;-78
2021/04/01 22:18:09;;;;;;;34.25;22.88;;;;;;;12.72;47.20;97803.91;10113853;29;20492;-78
2021/04/01 22:23:39;;;;;;;30.88;19.08;;;;;;;12.64;47.54;97792.94;10100599;29;20048;-78
2021/04/01 22:28:59;;;;;;;25.50;17.25;;;;;;;12.52;48.20;97792.19;10114930;29;20036;-78
2021/04/01 22:34:18;;;;;;;23.63;15.27;;;;;;;12.41;48.80;97781.72;10100416;29;20049;-78
2021/04/01 22:39:38;;;;;;;20.30;13.10;;;;;;;12.28;49.63;97803.38;10100675;29;20460;-79
2021/04/01 22:44:58;;;;;;;18.83;11.85;;;;;;;12.17;48.94;97804.09;10112766;29;20059;-78
2021/04/01 22:50:19;;;;;;;15.85;10.45;;;;;;;12.10;49.63;97791.06;10125600;29;20409;-78
2021/04/01 22:55:39;;;;;;;13.70;8.13;;;;;;;11.96;50.07;97801.34;10099698;29;20055;-78
2021/04/01 23:01:00;;;;;;;9.85;5.82;;;;;;;11.87;50.12;97799.38;10086468;29;20044;-78
2021/04/01 23:06:20;;;;;;;8.25;5.25;;;;;;;11.78;50.71;97800.19;10112767;29;20397;-77
2021/04/01 23:11:40;;;;;;;6.30;4.50;;;;;;;11.66;51.13;97803.66;10099105;29;20045;-78
2021/04/01 23:16:59;;;;;;;7.05;4.97;;;;;;;11.46;51.63;97828.25;10111932;29;20049;-78
2021/04/01 23:22:19;;;;;;;6.25;4.38;;;;;;;11.40;51.13;97830.66;10085971;29;20104;-78
2021/04/01 23:27:39;;;;;;;6.70;4.03;;;;;;;11.30;51.10;97832.78;10085265;29;20045;-77
2021/04/01 23:33:01;;;;;;;7.53;3.33;;;;;;;11.22;51.34;97837.09;10085286;29;20104;-78
2021/04/01 23:38:21;;;;;;;6.45;3.28;;;;;;;11.10;51.87;97839.84;10098289;29;20052;-78
2021/04/01 23:43:41;;;;;;;5.07;3.20;;;;;;;10.93;51.56;97829.63;10085067;29;20057;-78
2021/04/01 23:49:01;;;;;;;5.35;2.83;;;;;;;10.80;51.39;97847.59;10097696;29;20044;-77
2021/04/01 23:54:20;;;;;;;4.72;2.45;;;;;;;10.66;51.62;97834.75;10097233;29;20056;-78
2021/04/01 23:59:40;;;;;;;2.90;2.22;;;;;;;10.49;51.41;97838.47;10097818;29;20044;-78
